sensor_id;sensor_type;location;lat;lon;timestamp;P1;durP1;ratioP1;P2;durP2;ratioP2
16426;SDS011;8322;-33.900;151.170;2023-07-09T00:02:25;3.05;;;1.00;;
16426;SDS011;8322;-33.900;151.170;2023-07-09T00:04:54;2.50;;;1.00;;
16426;SDS011;8322;-33.900;151.170;2023-07-09T00:07:24;2.42;;;0.88;;
16426;SDS011;8322;-33.900;151.170;2023-07-09T00:09:55;2.50;;;0.80;;
16426;SDS011;8322;-33.900;151.170;2023-07-09T00:12:25;1.30;;;0.68;;
16426;SDS011;8322;-33.900;151.170;2023-07-09T00:14:57;3.03;;;0.95;;
16426;SDS011;8322;-33.900;151.170;2023-07-09T00:17:27;2.22;;;0.77;;
16426;SDS011;8322;-33.900;151.170;2023-07-09T00:19:56;2.47;;;0.80;;
16426;SDS011;8322;-33.900;151.170;2023-07-09T00:22:26;1.73;;;1.00;;
16426;SDS011;8322;-33.900;151.170;2023-07-09T00:24:55;2.78;;;1.15;;
16426;SDS011;8322;-33.900;151.170;2023-07-09T00:27:25;2.78;;;0.80;;
16426;SDS011;8322;-33.900;151.170;2023-07-09T00:29:58;4.30;;;1.10;;
16426;SDS011;8322;-33.900;151.170;2023-07-09T00:32:29;3.50;;;1.10;;
16426;SDS011;8322;-33.900;151.170;2023-07-09T00:35:09;2.58;;;0.88;;
16426;SDS011;8322;-33.900;151.170;2023-07-09T00:37:41;2.47;;;0.77;;
16426;SDS011;8322;-33.900;151.170;2023-07-09T00:40:15;1.83;;;1.00;;
16426;SDS011;8322;-33.900;151.170;2023-07-09T00:42:45;2.15;;;0.90;;
16426;SDS011;8322;-33.900;151.170;2023-07-09T00:45:22;2.10;;;0.70;;
16426;SDS011;8322;-33.900;151.170;2023-07-09T00:47:53;1.73;;;0.80;;
16426;SDS011;8322;-33.900;151.170;2023-07-09T00:50:26;1.33;;;0.82;;
16426;SDS011;8322;-33.900;151.170;2023-07-09T00:53:00;2.10;;;0.77;;
16426;SDS011;8322;-33.900;151.170;2023-07-09T00:55:33;3.05;;;0.80;;
16426;SDS011;8322;-33.900;151.170;2023-07-09T00:58:06;1.52;;;0.90;;
16426;SDS011;8322;-33.900;151.170;2023-07-09T01:00:39;2.35;;;0.77;;
16426;SDS011;8322;-33.900;151.170;2023-07-09T01:03:13;1.38;;;0.80;;
16426;SDS011;8322;-33.900;151.170;2023-07-09T01:05:45;2.13;;;0.68;;
16426;SDS011;8322;-33.900;151.170;2023-07-09T01:08:18;0.88;;;0.55;;
16426;SDS011;8322;-33.900;151.170;2023-07-09T01:10:48;1.90;;;0.75;;
16426;SDS011;8322;-33.900;151.170;2023-07-09T01:13:17;1.15;;;0.80;;
16426;SDS011;8322;-33.900;151.170;2023-07-09T01:15:49;3.65;;;0.93;;
16426;SDS011;8322;-33.900;151.170;2023-07-09T01:18:19;3.50;;;1.45;;
16426;SDS011;8322;-33.900;151.170;2023-07-09T01:20:51;1.50;;;0.60;;
16426;SDS011;8322;-33.900;151.170;2023-07-09T01:23:22;4.65;;;1.80;;
16426;SDS011;8322;-33.900;151.170;2023-07-09T01:25:51;1.73;;;1.13;;
16426;SDS011;8322;-33.900;151.170;2023-07-09T01:28:21;2.65;;;1.15;;
16426;SDS011;8322;-33.900;151.170;2023-07-09T01:30:51;4.15;;;2.10;;
16426;SDS011;8322;-33.900;151.170;2023-07-09T01:33:22;3.88;;;1.50;;
16426;SDS011;8322;-33.900;151.170;2023-07-09T01:35:51;2.25;;;0.82;;
16426;SDS011;8322;-33.900;151.170;2023-07-09T01:38:28;3.28;;;1.27;;
16426;SDS011;8322;-33.900;151.170;2023-07-09T01:40:57;2.38;;;1.02;;
16426;SDS011;8322;-33.900;151.170;2023-07-09T01:43:27;2.72;;;1.02;;
16426;SDS011;8322;-33.900;151.170;2023-07-09T01:45:56;2.03;;;0.60;;
16426;SDS011;8322;-33.900;151.170;2023-07-09T01:48:26;3.28;;;1.25;;
16426;SDS011;8322;-33.900;151.170;2023-07-09T01:50:56;3.95;;;1.20;;
16426;SDS011;8322;-33.900;151.170;2023-07-09T01:53:27;1.88;;;1.00;;
16426;SDS011;8322;-33.900;151.170;2023-07-09T01:55:59;1.88;;;1.00;;
16426;SDS011;8322;-33.900;151.170;2023-07-09T01:58:29;2.17;;;1.20;;
16426;SDS011;8322;-33.900;151.170;2023-07-09T02:00:59;3.72;;;1.10;;
16426;SDS011;8322;-33.900;151.170;2023-07-09T02:03:28;2.33;;;1.30;;
16426;SDS011;8322;-33.900;151.170;2023-07-09T02:05:58;2.50;;;1.08;;
16426;SDS011;8322;-33.900;151.170;2023-07-09T02:08:30;1.98;;;0.95;;
16426;SDS011;8322;-33.900;151.170;2023-07-09T02:10:59;2.25;;;1.00;;
16426;SDS011;8322;-33.900;151.170;2023-07-09T02:13:29;4.63;;;1.77;;
16426;SDS011;8322;-33.900;151.170;2023-07-09T02:15:58;2.95;;;1.02;;
16426;SDS011;8322;-33.900;151.170;2023-07-09T02:18:28;2.53;;;0.80;;
16426;SDS011;8322;-33.900;151.170;2023-07-09T02:20:58;3.50;;;1.30;;
16426;SDS011;8322;-33.900;151.170;2023-07-09T02:23:27;3.70;;;1.08;;
16426;SDS011;8322;-33.900;151.170;2023-07-09T02:25:59;5.07;;;1.08;;
16426;SDS011;8322;-33.900;151.170;2023-07-09T02:28:28;3.90;;;0.90;;
16426;SDS011;8322;-33.900;151.170;2023-07-09T02:30:58;3.45;;;1.00;;
16426;SDS011;8322;-33.900;151.170;2023-07-09T02:33:27;2.00;;;0.90;;
16426;SDS011;8322;-33.900;151.170;2023-07-09T02:35:59;2.92;;;1.27;;
16426;SDS011;8322;-33.900;151.170;2023-07-09T02:38:28;5.13;;;0.95;;
16426;SDS011;8322;-33.900;151.170;2023-07-09T02:40:59;3.28;;;0.98;;
16426;SDS011;8322;-33.900;151.170;2023-07-09T02:43:29;3.80;;;1.00;;
16426;SDS011;8322;-33.900;151.170;2023-07-09T02:45:58;2.42;;;0.88;;
16426;SDS011;8322;-33.900;151.170;2023-07-09T02:48:28;2.20;;;1.27;;
16426;SDS011;8322;-33.900;151.170;2023-07-09T02:50:57;3.05;;;1.00;;
16426;SDS011;8322;-33.900;151.170;2023-07-09T02:53:27;3.33;;;1.02;;
16426;SDS011;8322;-33.900;151.170;2023-07-09T02:55:56;2.65;;;1.00;;
16426;SDS011;8322;-33.900;151.170;2023-07-09T02:58:28;2.50;;;0.93;;
16426;SDS011;8322;-33.900;151.170;2023-07-09T03:00:57;3.03;;;0.88;;
16426;SDS011;8322;-33.900;151.170;2023-07-09T03:03:27;3.08;;;1.20;;
16426;SDS011;8322;-33.900;151.170;2023-07-09T03:05:56;3.03;;;1.23;;
16426;SDS011;8322;-33.900;151.170;2023-07-09T03:08:26;3.22;;;1.23;;
16426;SDS011;8322;-33.900;151.170;2023-07-09T03:10:55;3.17;;;1.10;;
16426;SDS011;8322;-33.900;151.170;2023-07-09T03:13:25;1.65;;;0.85;;
16426;SDS011;8322;-33.900;151.170;2023-07-09T03:15:56;2.75;;;1.02;;
16426;SDS011;8322;-33.900;151.170;2023-07-09T03:18:26;2.20;;;1.00;;
16426;SDS011;8322;-33.900;151.170;2023-07-09T03:20:55;2.40;;;0.73;;
16426;SDS011;8322;-33.900;151.170;2023-07-09T03:23:25;1.55;;;0.80;;
16426;SDS011;8322;-33.900;151.170;2023-07-09T03:25:54;1.67;;;1.00;;
16426;SDS011;8322;-33.900;151.170;2023-07-09T03:28:25;1.77;;;1.00;;
16426;SDS011;8322;-33.900;151.170;2023-07-09T03:30:57;2.85;;;1.13;;
16426;SDS011;8322;-33.900;151.170;2023-07-09T03:33:26;2.15;;;1.08;;
16426;SDS011;8322;-33.900;151.170;2023-07-09T03:35:56;1.27;;;0.60;;
16426;SDS011;8322;-33.900;151.170;2023-07-09T03:38:25;1.70;;;0.70;;
16426;SDS011;8322;-33.900;151.170;2023-07-09T03:40:55;2.45;;;0.88;;
16426;SDS011;8322;-33.900;151.170;2023-07-09T03:43:24;1.80;;;0.93;;
16426;SDS011;8322;-33.900;151.170;2023-07-09T03:45:54;2.80;;;0.85;;
16426;SDS011;8322;-33.900;151.170;2023-07-09T03:48:25;2.67;;;0.80;;
16426;SDS011;8322;-33.900;151.170;2023-07-09T03:50:54;1.77;;;0.95;;
16426;SDS011;8322;-33.900;151.170;2023-07-09T03:53:24;3.42;;;1.30;;
16426;SDS011;8322;-33.900;151.170;2023-07-09T03:55:54;3.17;;;0.80;;
16426;SDS011;8322;-33.900;151.170;2023-07-09T03:58:25;3.13;;;0.90;;
16426;SDS011;8322;-33.900;151.170;2023-07-09T04:00:55;2.90;;;1.20;;
16426;SDS011;8322;-33.900;151.170;2023-07-09T04:03:26;2.40;;;1.10;;
16426;SDS011;8322;-33.900;151.170;2023-07-09T04:05:56;2.67;;;1.55;;
16426;SDS011;8322;-33.900;151.170;2023-07-09T04:08:25;3.20;;;1.27;;
16426;SDS011;8322;-33.900;151.170;2023-07-09T04:10:58;1.88;;;1.30;;
16426;SDS011;8322;-33.900;151.170;2023-07-09T04:13:28;4.20;;;1.38;;
16426;SDS011;8322;-33.900;151.170;2023-07-09T04:15:57;2.17;;;1.00;;
16426;SDS011;8322;-33.900;151.170;2023-07-09T04:18:28;3.50;;;1.30;;
16426;SDS011;8322;-33.900;151.170;2023-07-09T04:20:58;1.30;;;0.90;;
16426;SDS011;8322;-33.900;151.170;2023-07-09T04:23:27;3.50;;;1.10;;
16426;SDS011;8322;-33.900;151.170;2023-07-09T04:25:57;3.00;;;1.10;;
16426;SDS011;8322;-33.900;151.170;2023-07-09T04:28:29;4.00;;;1.40;;
16426;SDS011;8322;-33.900;151.170;2023-07-09T04:30:58;4.45;;;0.98;;
16426;SDS011;8322;-33.900;151.170;2023-07-09T04:33:30;5.65;;;1.75;;
16426;SDS011;8322;-33.900;151.170;2023-07-09T04:36:01;2.90;;;1.52;;
16426;SDS011;8322;-33.900;151.170;2023-07-09T04:38:32;2.92;;;1.10;;
16426;SDS011;8322;-33.900;151.170;2023-07-09T04:41:02;2.13;;;1.00;;
16426;SDS011;8322;-33.900;151.170;2023-07-09T04:43:32;3.05;;;1.20;;
16426;SDS011;8322;-33.900;151.170;2023-07-09T04:46:02;2.88;;;1.20;;
16426;SDS011;8322;-33.900;151.170;2023-07-09T04:48:33;3.72;;;1.40;;
16426;SDS011;8322;-33.900;151.170;2023-07-09T04:51:03;3.72;;;0.88;;
16426;SDS011;8322;-33.900;151.170;2023-07-09T04:53:32;3.15;;;1.00;;
16426;SDS011;8322;-33.900;151.170;2023-07-09T04:56:02;5.00;;;2.63;;
16426;SDS011;8322;-33.900;151.170;2023-07-09T04:58:32;2.00;;;1.08;;
16426;SDS011;8322;-33.900;151.170;2023-07-09T05:01:01;2.60;;;1.33;;
16426;SDS011;8322;-33.900;151.170;2023-07-09T05:03:31;3.05;;;1.60;;
16426;SDS011;8322;-33.900;151.170;2023-07-09T05:06:04;3.90;;;1.92;;
16426;SDS011;8322;-33.900;151.170;2023-07-09T05:08:34;2.08;;;1.00;;
16426;SDS011;8322;-33.900;151.170;2023-07-09T05:11:03;2.53;;;1.13;;
16426;SDS011;8322;-33.900;151.170;2023-07-09T05:13:33;3.05;;;1.00;;
16426;SDS011;8322;-33.900;151.170;2023-07-09T05:16:02;3.38;;;1.45;;
16426;SDS011;8322;-33.900;151.170;2023-07-09T05:18:32;1.58;;;0.90;;
16426;SDS011;8322;-33.900;151.170;2023-07-09T05:21:03;1.85;;;0.95;;
16426;SDS011;8322;-33.900;151.170;2023-07-09T05:23:32;2.30;;;0.90;;
16426;SDS011;8322;-33.900;151.170;2023-07-09T05:26:03;1.98;;;0.80;;
16426;SDS011;8322;-33.900;151.170;2023-07-09T05:28:32;2.58;;;0.70;;
16426;SDS011;8322;-33.900;151.170;2023-07-09T05:31:02;1.35;;;0.88;;
16426;SDS011;8322;-33.900;151.170;2023-07-09T05:33:32;3.00;;;0.90;;
16426;SDS011;8322;-33.900;151.170;2023-07-09T05:36:04;1.83;;;0.80;;
16426;SDS011;8322;-33.900;151.170;2023-07-09T05:38:39;2.40;;;1.10;;
16426;SDS011;8322;-33.900;151.170;2023-07-09T05:41:09;1.50;;;0.60;;
16426;SDS011;8322;-33.900;151.170;2023-07-09T05:43:38;2.80;;;0.80;;
16426;SDS011;8322;-33.900;151.170;2023-07-09T05:46:09;2.50;;;0.80;;
16426;SDS011;8322;-33.900;151.170;2023-07-09T05:48:38;1.95;;;0.80;;
16426;SDS011;8322;-33.900;151.170;2023-07-09T05:51:10;1.38;;;0.70;;
16426;SDS011;8322;-33.900;151.170;2023-07-09T05:53:39;1.45;;;0.70;;
16426;SDS011;8322;-33.900;151.170;2023-07-09T05:56:08;1.92;;;1.08;;
16426;SDS011;8322;-33.900;151.170;2023-07-09T05:58:38;2.33;;;0.82;;
16426;SDS011;8322;-33.900;151.170;2023-07-09T06:01:08;2.50;;;0.98;;
16426;SDS011;8322;-33.900;151.170;2023-07-09T06:03:37;1.75;;;0.70;;
16426;SDS011;8322;-33.900;151.170;2023-07-09T06:06:07;1.17;;;0.70;;
16426;SDS011;8322;-33.900;151.170;2023-07-09T06:08:38;1.50;;;1.00;;
16426;SDS011;8322;-33.900;151.170;2023-07-09T06:11:08;1.55;;;0.90;;
16426;SDS011;8322;-33.900;151.170;2023-07-09T06:13:37;3.17;;;1.10;;
16426;SDS011;8322;-33.900;151.170;2023-07-09T06:16:07;1.63;;;0.98;;
16426;SDS011;8322;-33.900;151.170;2023-07-09T06:18:36;1.33;;;0.80;;
16426;SDS011;8322;-33.900;151.170;2023-07-09T06:21:06;1.20;;;0.80;;
16426;SDS011;8322;-33.900;151.170;2023-07-09T06:23:39;2.15;;;1.08;;
16426;SDS011;8322;-33.900;151.170;2023-07-09T06:26:08;1.58;;;0.80;;
16426;SDS011;8322;-33.900;151.170;2023-07-09T06:28:38;1.90;;;0.80;;
16426;SDS011;8322;-33.900;151.170;2023-07-09T06:31:07;0.73;;;0.70;;
16426;SDS011;8322;-33.900;151.170;2023-07-09T06:33:37;1.73;;;1.20;;
16426;SDS011;8322;-33.900;151.170;2023-07-09T06:36:06;1.25;;;0.90;;
16426;SDS011;8322;-33.900;151.170;2023-07-09T06:38:36;1.77;;;0.93;;
16426;SDS011;8322;-33.900;151.170;2023-07-09T06:41:07;1.42;;;0.80;;
16426;SDS011;8322;-33.900;151.170;2023-07-09T06:43:36;1.40;;;0.70;;
16426;SDS011;8322;-33.900;151.170;2023-07-09T06:46:07;1.55;;;1.00;;
16426;SDS011;8322;-33.900;151.170;2023-07-09T06:48:37;1.58;;;0.90;;
16426;SDS011;8322;-33.900;151.170;2023-07-09T06:51:06;1.55;;;0.80;;
16426;SDS011;8322;-33.900;151.170;2023-07-09T06:53:36;1.25;;;0.80;;
16426;SDS011;8322;-33.900;151.170;2023-07-09T06:56:07;1.33;;;0.95;;
16426;SDS011;8322;-33.900;151.170;2023-07-09T06:58:37;2.45;;;1.40;;
16426;SDS011;8322;-33.900;151.170;2023-07-09T07:01:07;3.03;;;1.90;;
16426;SDS011;8322;-33.900;151.170;2023-07-09T07:03:37;2.33;;;1.15;;
16426;SDS011;8322;-33.900;151.170;2023-07-09T07:06:06;3.00;;;1.00;;
16426;SDS011;8322;-33.900;151.170;2023-07-09T07:08:36;2.00;;;1.20;;
16426;SDS011;8322;-33.900;151.170;2023-07-09T07:11:05;2.38;;;1.00;;
16426;SDS011;8322;-33.900;151.170;2023-07-09T07:13:37;1.33;;;1.00;;
16426;SDS011;8322;-33.900;151.170;2023-07-09T07:16:07;2.35;;;0.93;;
16426;SDS011;8322;-33.900;151.170;2023-07-09T07:18:37;2.80;;;1.10;;
16426;SDS011;8322;-33.900;151.170;2023-07-09T07:21:07;3.28;;;1.20;;
16426;SDS011;8322;-33.900;151.170;2023-07-09T07:23:36;2.55;;;1.25;;
16426;SDS011;8322;-33.900;151.170;2023-07-09T07:26:05;2.30;;;1.75;;
16426;SDS011;8322;-33.900;151.170;2023-07-09T07:28:37;1.92;;;1.10;;
16426;SDS011;8322;-33.900;151.170;2023-07-09T07:31:07;2.05;;;1.38;;
16426;SDS011;8322;-33.900;151.170;2023-07-09T07:33:38;1.98;;;1.33;;
16426;SDS011;8322;-33.900;151.170;2023-07-09T07:36:09;2.47;;;1.60;;
16426;SDS011;8322;-33.900;151.170;2023-07-09T07:38:38;2.30;;;1.70;;
16426;SDS011;8322;-33.900;151.170;2023-07-09T07:41:08;2.88;;;1.60;;
16426;SDS011;8322;-33.900;151.170;2023-07-09T07:43:39;1.88;;;1.50;;
16426;SDS011;8322;-33.900;151.170;2023-07-09T07:46:09;2.22;;;1.52;;
16426;SDS011;8322;-33.900;151.170;2023-07-09T07:48:38;3.78;;;2.53;;
16426;SDS011;8322;-33.900;151.170;2023-07-09T07:51:08;6.35;;;3.67;;
16426;SDS011;8322;-33.900;151.170;2023-07-09T07:53:37;3.30;;;2.60;;
16426;SDS011;8322;-33.900;151.170;2023-07-09T07:56:07;4.07;;;1.80;;
16426;SDS011;8322;-33.900;151.170;2023-07-09T07:58:36;2.42;;;1.70;;
16426;SDS011;8322;-33.900;151.170;2023-07-09T08:01:07;2.53;;;1.70;;
16426;SDS011;8322;-33.900;151.170;2023-07-09T08:03:37;2.78;;;1.92;;
16426;SDS011;8322;-33.900;151.170;2023-07-09T08:06:06;4.32;;;2.53;;
16426;SDS011;8322;-33.900;151.170;2023-07-09T08:08:37;3.65;;;1.90;;
16426;SDS011;8322;-33.900;151.170;2023-07-09T08:11:07;3.92;;;2.40;;
16426;SDS011;8322;-33.900;151.170;2023-07-09T08:13:37;3.47;;;2.70;;
16426;SDS011;8322;-33.900;151.170;2023-07-09T08:16:08;3.33;;;2.30;;
16426;SDS011;8322;-33.900;151.170;2023-07-09T08:18:39;2.15;;;1.92;;
16426;SDS011;8322;-33.900;151.170;2023-07-09T08:21:08;4.05;;;2.70;;
16426;SDS011;8322;-33.900;151.170;2023-07-09T08:23:39;3.38;;;2.60;;
16426;SDS011;8322;-33.900;151.170;2023-07-09T08:26:08;4.88;;;3.17;;
16426;SDS011;8322;-33.900;151.170;2023-07-09T08:28:38;4.80;;;3.20;;
16426;SDS011;8322;-33.900;151.170;2023-07-09T08:31:09;4.15;;;2.92;;
16426;SDS011;8322;-33.900;151.170;2023-07-09T08:33:39;4.68;;;2.97;;
16426;SDS011;8322;-33.900;151.170;2023-07-09T08:36:08;4.07;;;2.50;;
16426;SDS011;8322;-33.900;151.170;2023-07-09T08:38:37;2.97;;;2.50;;
16426;SDS011;8322;-33.900;151.170;2023-07-09T08:41:08;3.10;;;2.30;;
16426;SDS011;8322;-33.900;151.170;2023-07-09T08:43:39;4.88;;;4.07;;
16426;SDS011;8322;-33.900;151.170;2023-07-09T08:46:17;10.02;;;6.13;;
16426;SDS011;8322;-33.900;151.170;2023-07-09T08:48:49;5.18;;;2.90;;
16426;SDS011;8322;-33.900;151.170;2023-07-09T08:51:22;3.17;;;1.80;;
16426;SDS011;8322;-33.900;151.170;2023-07-09T08:53:54;3.97;;;2.67;;
16426;SDS011;8322;-33.900;151.170;2023-07-09T08:56:25;4.43;;;2.70;;
16426;SDS011;8322;-33.900;151.170;2023-07-09T08:58:55;4.25;;;2.70;;
16426;SDS011;8322;-33.900;151.170;2023-07-09T09:01:28;6.07;;;2.83;;
16426;SDS011;8322;-33.900;151.170;2023-07-09T09:04:02;10.32;;;6.47;;
16426;SDS011;8322;-33.900;151.170;2023-07-09T09:06:32;6.90;;;3.42;;
16426;SDS011;8322;-33.900;151.170;2023-07-09T09:09:03;4.45;;;2.53;;
16426;SDS011;8322;-33.900;151.170;2023-07-09T09:11:37;3.33;;;2.50;;
16426;SDS011;8322;-33.900;151.170;2023-07-09T09:14:16;3.80;;;2.47;;
16426;SDS011;8322;-33.900;151.170;2023-07-09T09:16:49;3.85;;;2.25;;
16426;SDS011;8322;-33.900;151.170;2023-07-09T09:19:20;2.38;;;1.98;;
16426;SDS011;8322;-33.900;151.170;2023-07-09T09:21:51;4.57;;;2.90;;
16426;SDS011;8322;-33.900;151.170;2023-07-09T09:24:26;4.43;;;2.70;;
16426;SDS011;8322;-33.900;151.170;2023-07-09T09:26:56;3.20;;;2.60;;
16426;SDS011;8322;-33.900;151.170;2023-07-09T09:29:26;4.03;;;2.10;;
16426;SDS011;8322;-33.900;151.170;2023-07-09T09:31:58;2.58;;;1.90;;
16426;SDS011;8322;-33.900;151.170;2023-07-09T09:34:29;2.20;;;1.90;;
16426;SDS011;8322;-33.900;151.170;2023-07-09T09:36:59;4.50;;;2.80;;
16426;SDS011;8322;-33.900;151.170;2023-07-09T09:39:28;4.82;;;2.88;;
16426;SDS011;8322;-33.900;151.170;2023-07-09T09:41:58;6.63;;;4.40;;
16426;SDS011;8322;-33.900;151.170;2023-07-09T09:44:28;7.88;;;4.40;;
16426;SDS011;8322;-33.900;151.170;2023-07-09T09:47:00;6.20;;;4.20;;
16426;SDS011;8322;-33.900;151.170;2023-07-09T09:49:30;5.68;;;4.05;;
16426;SDS011;8322;-33.900;151.170;2023-07-09T09:52:10;8.93;;;5.47;;
16426;SDS011;8322;-33.900;151.170;2023-07-09T09:54:40;4.85;;;3.83;;
16426;SDS011;8322;-33.900;151.170;2023-07-09T09:57:15;3.72;;;2.63;;
16426;SDS011;8322;-33.900;151.170;2023-07-09T09:59:45;4.85;;;2.70;;
16426;SDS011;8322;-33.900;151.170;2023-07-09T10:02:18;3.42;;;2.63;;
16426;SDS011;8322;-33.900;151.170;2023-07-09T10:04:48;3.10;;;2.22;;
16426;SDS011;8322;-33.900;151.170;2023-07-09T10:07:19;2.53;;;2.08;;
16426;SDS011;8322;-33.900;151.170;2023-07-09T10:09:51;3.25;;;2.45;;
16426;SDS011;8322;-33.900;151.170;2023-07-09T10:12:31;2.50;;;2.08;;
16426;SDS011;8322;-33.900;151.170;2023-07-09T10:15:05;3.13;;;1.90;;
16426;SDS011;8322;-33.900;151.170;2023-07-09T10:17:39;3.60;;;2.10;;
16426;SDS011;8322;-33.900;151.170;2023-07-09T10:20:16;2.78;;;1.70;;
16426;SDS011;8322;-33.900;151.170;2023-07-09T10:22:49;2.60;;;1.80;;
16426;SDS011;8322;-33.900;151.170;2023-07-09T10:25:23;3.95;;;2.00;;
16426;SDS011;8322;-33.900;151.170;2023-07-09T10:30:46;3.25;;;1.80;;
16426;SDS011;8322;-33.900;151.170;2023-07-09T10:33:21;3.45;;;1.98;;
16426;SDS011;8322;-33.900;151.170;2023-07-09T10:35:53;2.65;;;1.90;;
16426;SDS011;8322;-33.900;151.170;2023-07-09T10:38:32;4.97;;;2.22;;
16426;SDS011;8322;-33.900;151.170;2023-07-09T10:41:04;3.58;;;2.38;;
16426;SDS011;8322;-33.900;151.170;2023-07-09T10:43:37;4.18;;;2.60;;
16426;SDS011;8322;-33.900;151.170;2023-07-09T10:46:10;3.38;;;2.42;;
16426;SDS011;8322;-33.900;151.170;2023-07-09T10:48:42;3.63;;;2.80;;
16426;SDS011;8322;-33.900;151.170;2023-07-09T10:51:16;4.93;;;2.65;;
16426;SDS011;8322;-33.900;151.170;2023-07-09T10:53:48;4.63;;;2.80;;
16426;SDS011;8322;-33.900;151.170;2023-07-09T10:56:19;5.25;;;2.55;;
16426;SDS011;8322;-33.900;151.170;2023-07-09T10:58:52;2.60;;;2.25;;
16426;SDS011;8322;-33.900;151.170;2023-07-09T11:01:25;4.22;;;2.28;;
16426;SDS011;8322;-33.900;151.170;2023-07-09T11:03:59;2.75;;;2.28;;
16426;SDS011;8322;-33.900;151.170;2023-07-09T11:06:31;3.08;;;2.35;;
16426;SDS011;8322;-33.900;151.170;2023-07-09T11:09:02;3.40;;;2.20;;
16426;SDS011;8322;-33.900;151.170;2023-07-09T11:11:34;2.97;;;2.30;;
16426;SDS011;8322;-33.900;151.170;2023-07-09T11:14:04;6.35;;;2.97;;
16426;SDS011;8322;-33.900;151.170;2023-07-09T11:16:39;2.38;;;2.08;;
16426;SDS011;8322;-33.900;151.170;2023-07-09T11:19:14;3.80;;;2.45;;
16426;SDS011;8322;-33.900;151.170;2023-07-09T11:21:57;4.05;;;2.10;;
16426;SDS011;8322;-33.900;151.170;2023-07-09T11:24:31;3.67;;;2.15;;
16426;SDS011;8322;-33.900;151.170;2023-07-09T11:27:01;3.72;;;2.90;;
16426;SDS011;8322;-33.900;151.170;2023-07-09T11:29:30;5.00;;;2.50;;
16426;SDS011;8322;-33.900;151.170;2023-07-09T11:32:07;4.32;;;2.30;;
16426;SDS011;8322;-33.900;151.170;2023-07-09T11:34:46;2.72;;;1.95;;
16426;SDS011;8322;-33.900;151.170;2023-07-09T11:37:16;4.32;;;2.28;;
16426;SDS011;8322;-33.900;151.170;2023-07-09T11:39:46;3.20;;;2.10;;
16426;SDS011;8322;-33.900;151.170;2023-07-09T11:42:25;4.32;;;2.25;;
16426;SDS011;8322;-33.900;151.170;2023-07-09T11:45:00;3.58;;;2.20;;
16426;SDS011;8322;-33.900;151.170;2023-07-09T11:47:31;3.70;;;2.28;;
16426;SDS011;8322;-33.900;151.170;2023-07-09T11:50:06;4.47;;;2.42;;
16426;SDS011;8322;-33.900;151.170;2023-07-09T11:52:41;5.63;;;3.17;;
16426;SDS011;8322;-33.900;151.170;2023-07-09T11:55:21;3.45;;;2.85;;
16426;SDS011;8322;-33.900;151.170;2023-07-09T11:57:53;5.15;;;2.75;;
16426;SDS011;8322;-33.900;151.170;2023-07-09T12:00:23;5.10;;;2.70;;
16426;SDS011;8322;-33.900;151.170;2023-07-09T12:02:52;5.20;;;2.75;;
16426;SDS011;8322;-33.900;151.170;2023-07-09T12:05:25;3.85;;;2.53;;
16426;SDS011;8322;-33.900;151.170;2023-07-09T12:07:55;4.43;;;2.30;;
16426;SDS011;8322;-33.900;151.170;2023-07-09T12:10:26;4.70;;;2.20;;
16426;SDS011;8322;-33.900;151.170;2023-07-09T12:12:56;4.25;;;2.08;;
16426;SDS011;8322;-33.900;151.170;2023-07-09T12:15:26;3.33;;;2.28;;
16426;SDS011;8322;-33.900;151.170;2023-07-09T12:17:58;2.13;;;1.75;;
16426;SDS011;8322;-33.900;151.170;2023-07-09T12:20:31;2.88;;;1.63;;
16426;SDS011;8322;-33.900;151.170;2023-07-09T12:23:09;3.60;;;1.70;;
16426;SDS011;8322;-33.900;151.170;2023-07-09T12:25:39;2.58;;;1.85;;
16426;SDS011;8322;-33.900;151.170;2023-07-09T12:28:16;3.53;;;1.60;;
16426;SDS011;8322;-33.900;151.170;2023-07-09T12:30:46;2.50;;;1.30;;
16426;SDS011;8322;-33.900;151.170;2023-07-09T12:33:16;2.08;;;1.60;;
16426;SDS011;8322;-33.900;151.170;2023-07-09T12:35:49;2.03;;;1.55;;
16426;SDS011;8322;-33.900;151.170;2023-07-09T12:38:19;2.58;;;1.60;;
16426;SDS011;8322;-33.900;151.170;2023-07-09T12:40:49;1.95;;;1.70;;
16426;SDS011;8322;-33.900;151.170;2023-07-09T12:43:19;2.15;;;1.60;;
16426;SDS011;8322;-33.900;151.170;2023-07-09T12:45:52;1.85;;;1.20;;
16426;SDS011;8322;-33.900;151.170;2023-07-09T12:48:22;3.03;;;1.58;;
16426;SDS011;8322;-33.900;151.170;2023-07-09T12:50:54;3.13;;;1.90;;
16426;SDS011;8322;-33.900;151.170;2023-07-09T12:53:24;4.00;;;1.80;;
16426;SDS011;8322;-33.900;151.170;2023-07-09T12:55:54;2.78;;;1.73;;
16426;SDS011;8322;-33.900;151.170;2023-07-09T12:58:25;3.40;;;1.60;;
16426;SDS011;8322;-33.900;151.170;2023-07-09T13:00:56;2.58;;;1.83;;
16426;SDS011;8322;-33.900;151.170;2023-07-09T13:03:26;1.83;;;1.63;;
16426;SDS011;8322;-33.900;151.170;2023-07-09T13:05:58;2.67;;;1.58;;
16426;SDS011;8322;-33.900;151.170;2023-07-09T13:08:30;2.25;;;1.38;;
16426;SDS011;8322;-33.900;151.170;2023-07-09T13:10:59;1.70;;;1.17;;
16426;SDS011;8322;-33.900;151.170;2023-07-09T13:13:29;2.25;;;1.00;;
16426;SDS011;8322;-33.900;151.170;2023-07-09T13:16:00;1.60;;;1.20;;
16426;SDS011;8322;-33.900;151.170;2023-07-09T13:18:29;2.05;;;1.33;;
16426;SDS011;8322;-33.900;151.170;2023-07-09T13:21:01;1.95;;;1.20;;
16426;SDS011;8322;-33.900;151.170;2023-07-09T13:23:39;2.00;;;1.20;;
16426;SDS011;8322;-33.900;151.170;2023-07-09T13:26:09;1.17;;;1.08;;
16426;SDS011;8322;-33.900;151.170;2023-07-09T13:28:38;2.72;;;1.20;;
16426;SDS011;8322;-33.900;151.170;2023-07-09T13:31:09;1.77;;;1.27;;
16426;SDS011;8322;-33.900;151.170;2023-07-09T13:33:39;2.97;;;1.58;;
16426;SDS011;8322;-33.900;151.170;2023-07-09T13:36:10;1.98;;;1.40;;
16426;SDS011;8322;-33.900;151.170;2023-07-09T13:38:40;1.33;;;1.20;;
16426;SDS011;8322;-33.900;151.170;2023-07-09T13:41:10;2.13;;;1.38;;
16426;SDS011;8322;-33.900;151.170;2023-07-09T13:43:41;2.00;;;1.17;;
16426;SDS011;8322;-33.900;151.170;2023-07-09T13:46:11;2.63;;;1.50;;
16426;SDS011;8322;-33.900;151.170;2023-07-09T13:48:41;2.03;;;1.52;;
16426;SDS011;8322;-33.900;151.170;2023-07-09T13:51:16;2.50;;;1.80;;
16426;SDS011;8322;-33.900;151.170;2023-07-09T13:53:46;1.75;;;1.10;;
16426;SDS011;8322;-33.900;151.170;2023-07-09T13:56:15;1.52;;;1.40;;
16426;SDS011;8322;-33.900;151.170;2023-07-09T13:58:45;2.03;;;1.42;;
16426;SDS011;8322;-33.900;151.170;2023-07-09T14:01:15;2.60;;;1.50;;
16426;SDS011;8322;-33.900;151.170;2023-07-09T14:03:46;2.20;;;1.50;;
16426;SDS011;8322;-33.900;151.170;2023-07-09T14:06:17;3.53;;;1.50;;
16426;SDS011;8322;-33.900;151.170;2023-07-09T14:08:47;2.90;;;1.45;;
16426;SDS011;8322;-33.900;151.170;2023-07-09T14:11:16;1.70;;;1.20;;
16426;SDS011;8322;-33.900;151.170;2023-07-09T14:13:47;1.30;;;0.98;;
16426;SDS011;8322;-33.900;151.170;2023-07-09T14:16:18;1.00;;;0.90;;
16426;SDS011;8322;-33.900;151.170;2023-07-09T14:18:47;1.83;;;1.20;;
16426;SDS011;8322;-33.900;151.170;2023-07-09T14:21:20;0.90;;;0.90;;
16426;SDS011;8322;-33.900;151.170;2023-07-09T14:23:50;1.83;;;1.00;;
16426;SDS011;8322;-33.900;151.170;2023-07-09T14:26:20;2.30;;;1.10;;
16426;SDS011;8322;-33.900;151.170;2023-07-09T14:28:49;3.63;;;1.00;;
16426;SDS011;8322;-33.900;151.170;2023-07-09T14:31:20;1.80;;;1.10;;
16426;SDS011;8322;-33.900;151.170;2023-07-09T14:33:51;1.75;;;1.33;;
16426;SDS011;8322;-33.900;151.170;2023-07-09T14:36:23;2.30;;;1.20;;
16426;SDS011;8322;-33.900;151.170;2023-07-09T14:38:52;1.40;;;1.20;;
16426;SDS011;8322;-33.900;151.170;2023-07-09T14:41:22;1.65;;;1.20;;
16426;SDS011;8322;-33.900;151.170;2023-07-09T14:43:53;3.03;;;1.10;;
16426;SDS011;8322;-33.900;151.170;2023-07-09T14:46:23;1.42;;;1.00;;